Time;durP1;ratioP1;P1;durP2;ratioP2;P2;SDS_P1;SDS_P2;PMS_P1;PMS_P2;Temp;Humidity;BMP_temperature;BMP_pressure;BME280_temperature;BME280_humidity;BME280_pressure;Samples;Min_cycle;Max_cycle;Signal;HPM_P1;HPM_P2
2023/08/30 00:02:09;;;;;;;15.80;10.88;;;;;;;22.03;66.28;100258.63;1752193;82;21417;-55
2023/08/30 00:05:16;;;;;;;17.92;10.25;;;;;;;21.99;66.35;100253.24;1752118;82;21350;-54
2023/08/30 00:08:21;;;;;;;13.48;10.75;;;;;;;21.95;66.41;100260.97;1751848;82;21875;-55
2023/08/30 00:11:27;;;;;;;13.62;10.43;;;;;;;21.92;66.50;100260.09;1743865;82;21196;-54
2023/08/30 00:14:32;;;;;;;14.58;10.08;;;;;;;21.86;66.51;100258.31;1743951;82;21378;-54
2023/08/30 00:17:37;;;;;;;13.22;10.53;;;;;;;21.84;66.60;100254.92;1743884;82;21208;-55
2023/08/30 00:20:42;;;;;;;17.15;10.53;;;;;;;21.80;66.67;100257.94;1743882;82;21598;-55
2023/08/30 00:23:48;;;;;;;14.25;10.58;;;;;;;21.77;66.74;100254.27;1743925;82;21231;-54
2023/08/30 00:26:54;;;;;;;10.63;8.95;;;;;;;21.72;66.78;100259.14;1743884;82;21266;-54
2023/08/30 00:30:00;;;;;;;11.22;9.25;;;;;;;21.68;66.77;100255.72;1743956;82;21783;-55
2023/08/30 00:33:06;;;;;;;15.30;9.83;;;;;;;21.64;66.81;100263.75;1743864;82;21231;-55
2023/08/30 00:36:11;;;;;;;11.60;9.63;;;;;;;21.62;66.90;100260.37;1741864;82;21744;-56
2023/08/30 00:39:17;;;;;;;13.05;9.90;;;;;;;21.60;66.89;100263.09;1729363;82;21216;-55
2023/08/30 00:42:25;;;;;;;11.30;9.18;;;;;;;21.56;66.92;100259.12;1719270;83;21224;-54
2023/08/30 00:45:31;;;;;;;12.18;8.95;;;;;;;21.52;66.93;100257.38;1728889;83;21330;-55
2023/08/30 00:48:37;;;;;;;12.63;9.50;;;;;;;21.49;66.97;100259.28;1714512;83;21209;-54
2023/08/30 00:51:43;;;;;;;14.25;8.68;;;;;;;21.49;67.06;100258.42;1728964;83;21220;-55
2023/08/30 00:54:50;;;;;;;12.60;9.48;;;;;;;21.48;67.16;100259.53;1729276;82;21824;-54
2023/08/30 00:57:54;;;;;;;10.70;8.65;;;;;;;21.47;67.23;100261.45;1729205;82;21259;-55
2023/08/30 01:01:04;;;;;;;11.53;9.23;;;;;;;21.48;67.35;100267.34;1729059;82;21276;-55
2023/08/30 01:04:10;;;;;;;10.18;8.73;;;;;;;21.46;67.29;100272.31;1737017;81;21401;-55
2023/08/30 01:07:16;;;;;;;12.70;9.28;;;;;;;21.43;67.25;100279.78;1728508;83;21220;-55
2023/08/30 01:10:22;;;;;;;16.57;9.83;;;;;;;21.40;67.25;100279.42;1729207;82;21741;-54
2023/08/30 01:13:30;;;;;;;10.68;9.35;;;;;;;21.38;67.25;100280.21;1728845;82;21283;-54
2023/08/30 01:16:35;;;;;;;10.95;9.13;;;;;;;21.35;67.28;100281.56;1728730;83;21741;-55
2023/08/30 01:19:53;;;;;;;15.50;10.18;;;;;;;21.29;67.18;100280.31;1728621;82;21228;-55
2023/08/30 01:23:34;;;;;;;11.73;9.53;;;;;;;21.22;67.19;100274.89;1728935;83;21243;-55
2023/08/30 01:26:55;;;;;;;14.90;9.25;;;;;;;21.21;67.30;100279.31;1729205;82;21243;-55
2023/08/30 01:30:02;;;;;;;10.80;8.33;;;;;;;21.17;67.36;100282.31;1729100;83;21193;-55
2023/08/30 01:33:09;;;;;;;10.80;8.63;;;;;;;21.13;67.36;100281.95;1728960;83;21236;-55
2023/08/30 01:36:16;;;;;;;16.45;9.05;;;;;;;21.10;67.39;100275.48;1713018;82;21212;-55
2023/08/30 01:39:22;;;;;;;14.33;9.03;;;;;;;21.06;67.41;100270.09;1727146;83;21404;-54
2023/08/30 01:42:27;;;;;;;9.73;8.20;;;;;;;21.04;67.46;100276.45;1729117;82;21267;-55
2023/08/30 01:45:32;;;;;;;14.53;9.25;;;;;;;21.01;67.46;100270.55;1729118;82;21543;-54
2023/08/30 01:48:37;;;;;;;11.70;9.83;;;;;;;20.97;67.46;100271.58;1728637;82;22142;-54
2023/08/30 01:51:43;;;;;;;15.90;9.50;;;;;;;20.95;67.58;100275.12;1728938;82;21216;-54
2023/08/30 01:54:51;;;;;;;11.75;9.65;;;;;;;20.95;67.63;100288.21;1729165;82;21209;-55
2023/08/30 01:57:59;;;;;;;14.23;9.33;;;;;;;20.91;67.57;100288.38;1728946;82;21704;-55
2023/08/30 02:01:08;;;;;;;15.43;9.63;;;;;;;20.87;67.59;100288.02;1729087;83;21205;-55
2023/08/30 02:04:16;;;;;;;12.18;9.20;;;;;;;20.84;67.62;100285.73;1714155;82;21802;-54
2023/08/30 02:07:25;;;;;;;13.38;9.00;;;;;;;20.80;67.62;100293.71;1729041;82;21240;-54
2023/08/30 02:10:37;;;;;;;12.00;9.25;;;;;;;20.78;67.62;100293.67;1728235;83;21788;-55
2023/08/30 02:13:37;;;;;;;16.23;9.40;;;;;;;20.75;67.64;100287.20;1728908;82;21328;-55
2023/08/30 02:16:45;;;;;;;11.22;8.43;;;;;;;20.73;67.73;100296.33;1729185;82;21375;-54
2023/08/30 02:19:53;;;;;;;11.68;9.55;;;;;;;20.71;67.76;100297.11;1729156;82;21219;-54
2023/08/30 02:22:59;;;;;;;11.30;9.25;;;;;;;20.68;67.81;100292.04;1728982;83;21228;-54
2023/08/30 02:26:06;;;;;;;13.03;9.38;;;;;;;20.66;67.79;100296.45;1726763;83;21272;-54
2023/08/30 02:29:13;;;;;;;12.73;9.63;;;;;;;20.64;67.84;100299.20;1728934;82;21549;-54
2023/08/30 02:32:20;;;;;;;12.58;9.20;;;;;;;20.61;67.88;100300.50;1736928;82;21462;-54
2023/08/30 02:35:27;;;;;;;15.75;9.43;;;;;;;20.60;67.94;100304.92;1729439;82;21224;-54
2023/08/30 02:38:32;;;;;;;11.80;9.45;;;;;;;20.58;67.96;100300.17;1728294;82;21251;-55
2023/08/30 02:41:40;;;;;;;12.28;9.20;;;;;;;20.56;67.98;100302.34;1725514;82;21531;-55
2023/08/30 02:44:47;;;;;;;10.43;9.10;;;;;;;20.55;67.98;100311.78;1734218;82;21378;-55
2023/08/30 02:47:53;;;;;;;11.75;9.75;;;;;;;20.53;67.98;100308.39;1734119;82;21343;-55
2023/08/30 02:50:59;;;;;;;13.58;9.50;;;;;;;20.50;68.02;100306.92;1734124;82;21362;-55
2023/08/30 02:54:05;;;;;;;15.55;10.20;;;;;;;20.49;68.06;100309.95;1734059;82;21378;-55
2023/08/30 02:57:11;;;;;;;13.40;9.38;;;;;;;20.46;68.09;100310.44;1729951;82;21311;-55
2023/08/30 03:00:18;;;;;;;11.65;9.68;;;;;;;20.46;68.20;100311.29;1739251;82;21216;-55
2023/08/30 03:03:23;;;;;;;13.58;10.60;;;;;;;20.45;68.24;100315.70;1738767;82;21748;-55
2023/08/30 03:06:32;;;;;;;14.85;9.48;;;;;;;20.44;68.28;100312.60;1739847;81;21744;-55
2023/08/30 03:09:39;;;;;;;15.70;9.78;;;;;;;20.45;68.36;100319.34;1730294;83;21429;-55
2023/08/30 03:12:45;;;;;;;12.80;9.35;;;;;;;20.47;68.35;100321.87;1731000;83;21371;-55
2023/08/30 03:15:50;;;;;;;15.08;9.58;;;;;;;20.47;68.37;100324.09;1732331;82;21414;-55
2023/08/30 03:18:57;;;;;;;11.05;9.30;;;;;;;20.51;68.47;100326.72;1734092;82;21358;-55
2023/08/30 03:22:02;;;;;;;14.90;10.48;;;;;;;20.55;68.52;100324.30;1733701;82;21370;-54
2023/08/30 03:25:09;;;;;;;12.82;9.18;;;;;;;20.57;68.53;100323.49;1733992;82;21358;-55
2023/08/30 03:28:15;;;;;;;15.78;9.15;;;;;;;20.61;68.57;100325.55;1716906;82;21417;-57
2023/08/30 03:31:24;;;;;;;12.15;9.00;;;;;;;20.63;68.58;100326.69;1733570;82;21370;-56
2023/08/30 03:34:29;;;;;;;15.15;9.50;;;;;;;20.67;68.61;100333.48;1733181;82;21904;-55
2023/08/30 03:37:35;;;;;;;13.50;9.08;;;;;;;20.68;68.56;100326.81;1734156;82;21466;-56
2023/08/30 03:40:41;;;;;;;13.72;9.73;;;;;;;20.68;68.41;100336.55;1739457;81;21250;-54
2023/08/30 03:43:48;;;;;;;14.45;10.35;;;;;;;20.69;68.37;100343.83;1743809;82;21223;-54
2023/08/30 03:46:56;;;;;;;13.72;9.65;;;;;;;20.68;68.38;100346.29;1743918;82;21231;-54
2023/08/30 03:50:00;;;;;;;12.55;9.90;;;;;;;20.71;68.42;100345.27;1743724;82;21286;-54
2023/08/30 03:53:07;;;;;;;12.63;9.38;;;;;;;20.75;68.47;100342.86;1738433;82;21401;-55
2023/08/30 03:56:12;;;;;;;14.90;9.55;;;;;;;20.79;68.39;100348.22;1743764;82;21192;-54
2023/08/30 03:59:22;;;;;;;16.02;10.00;;;;;;;20.81;68.36;100344.66;1743824;82;21242;-54
2023/08/30 04:02:29;;;;;;;15.32;10.43;;;;;;;20.83;68.31;100345.27;1743861;82;21307;-53
2023/08/30 04:05:41;;;;;;;15.58;10.10;;;;;;;20.85;68.29;100346.41;1743887;82;21262;-54
2023/08/30 04:08:47;;;;;;;15.75;11.45;;;;;;;20.86;68.28;100346.17;1743873;82;21227;-54
2023/08/30 04:11:54;;;;;;;20.70;12.53;;;;;;;20.88;68.24;100337.58;1743674;82;21219;-54
2023/08/30 04:15:00;;;;;;;20.32;13.53;;;;;;;20.90;68.25;100339.58;1743480;82;21255;-53
2023/08/30 04:18:07;;;;;;;26.05;14.50;;;;;;;20.92;68.26;100343.80;1743229;82;21235;-55
2023/08/30 04:21:17;;;;;;;21.48;12.20;;;;;;;20.95;68.28;100344.70;1743555;81;21282;-54
2023/08/30 04:24:23;;;;;;;17.85;11.12;;;;;;;20.98;68.31;100348.98;1773166;80;21211;-54
2023/08/30 04:27:28;;;;;;;21.60;10.93;;;;;;;21.03;68.34;100348.53;1760335;81;21196;-54
2023/08/30 04:30:34;;;;;;;20.82;10.38;;;;;;;21.08;68.35;100351.44;1705041;84;21756;-54
2023/08/30 04:33:41;;;;;;;27.67;19.73;;;;;;;21.13;68.37;100345.98;1764899;80;21218;-55
2023/08/30 04:36:47;;;;;;;20.05;13.70;;;;;;;21.17;68.39;100337.99;1713371;83;21765;-56
2023/08/30 04:39:57;;;;;;;22.40;14.53;;;;;;;21.24;68.40;100340.94;1713481;83;21342;-55
2023/08/30 04:43:03;;;;;;;26.57;14.15;;;;;;;21.28;68.37;100347.69;1712884;82;21193;-55
2023/08/30 04:46:10;;;;;;;27.80;17.67;;;;;;;21.35;68.37;100347.02;1777340;80;21258;-55
2023/08/30 04:49:16;;;;;;;20.20;13.10;;;;;;;21.41;68.39;100343.23;1713707;83;21732;-55
2023/08/30 04:52:21;;;;;;;17.75;11.63;;;;;;;21.47;68.43;100349.20;1777729;80;21709;-54
2023/08/30 04:55:27;;;;;;;25.32;14.55;;;;;;;21.52;68.45;100346.53;1677978;83;21243;-54
2023/08/30 04:58:34;;;;;;;21.27;12.23;;;;;;;21.59;68.50;100348.64;1719239;82;21393;-54
2023/08/30 05:01:41;;;;;;;19.37;10.95;;;;;;;21.67;68.54;100349.64;1685407;84;21219;-53
2023/08/30 05:04:48;;;;;;;17.02;11.00;;;;;;;21.75;68.54;100349.78;1688106;84;21239;-53
2023/08/30 05:07:55;;;;;;;16.15;10.13;;;;;;;21.82;68.54;100352.73;1723808;82;21322;-53
2023/08/30 05:11:02;;;;;;;16.62;11.22;;;;;;;21.91;68.57;100357.37;1720165;83;21377;-53
2023/08/30 05:14:12;;;;;;;14.93;10.55;;;;;;;21.97;68.57;100361.40;1723593;80;21436;-53
2023/08/30 05:17:18;;;;;;;13.10;10.13;;;;;;;22.04;68.57;100357.89;1739223;80;21386;-53
2023/08/30 05:20:31;;;;;;;16.27;10.53;;;;;;;22.11;68.57;100352.16;1738175;80;21800;-52
2023/08/30 05:23:41;;;;;;;20.02;11.63;;;;;;;22.17;68.56;100358.97;1715588;81;22152;-54
2023/08/30 05:26:46;;;;;;;17.70;11.25;;;;;;;22.26;68.56;100354.38;1674284;85;21279;-54
2023/08/30 05:29:58;;;;;;;12.63;10.30;;;;;;;22.34;68.59;100353.95;1735792;80;21188;-54
2023/08/30 05:33:04;;;;;;;15.28;10.55;;;;;;;22.42;68.59;100354.94;1658587;85;21248;-55
2023/08/30 05:36:11;;;;;;;17.57;13.58;;;;;;;22.49;68.58;100357.84;1732822;82;21789;-54
2023/08/30 05:39:20;;;;;;;18.25;10.25;;;;;;;22.58;68.58;100357.73;1670045;84;21236;-55
2023/08/30 05:42:26;;;;;;;15.25;10.98;;;;;;;22.68;68.59;100359.30;1748154;81;21361;-54
2023/08/30 05:45:31;;;;;;;18.32;10.20;;;;;;;22.76;68.59;100350.50;1685278;83;21764;-54
2023/08/30 05:48:38;;;;;;;22.77;10.20;;;;;;;22.86;68.53;100351.20;1681722;84;21287;-55
2023/08/30 05:51:45;;;;;;;19.30;10.88;;;;;;;22.95;68.46;100349.11;1729421;82;21228;-53
2023/08/30 05:54:50;;;;;;;36.85;12.37;;;;;;;23.04;68.43;100352.32;1680017;83;21303;-53
2023/08/30 05:57:57;;;;;;;15.93;10.48;;;;;;;23.12;68.40;100352.70;1683041;83;21279;-52
2023/08/30 06:01:06;;;;;;;17.90;9.85;;;;;;;23.21;68.37;100355.33;1702019;83;21789;-53
2023/08/30 06:04:13;;;;;;;14.75;9.23;;;;;;;23.30;68.30;100352.98;1715751;83;21757;-52
2023/08/30 06:07:18;;;;;;;13.38;9.55;;;;;;;23.38;68.22;100353.92;1687085;85;21258;-52
2023/08/30 06:10:23;;;;;;;16.62;10.15;;;;;;;23.46;68.13;100347.34;1749540;81;21207;-52
2023/08/30 06:13:29;;;;;;;12.03;9.15;;;;;;;23.54;68.02;100351.61;1689051;84;21646;-52
2023/08/30 06:16:35;;;;;;;17.77;9.23;;;;;;;23.61;67.94;100350.30;1700661;84;21233;-52
2023/08/30 06:19:41;;;;;;;20.25;10.03;;;;;;;23.70;67.88;100350.69;1681363;85;21240;-51
2023/08/30 06:22:48;;;;;;;14.30;8.78;;;;;;;23.78;67.79;100349.37;1671096;85;21968;-50
2023/08/30 06:25:54;;;;;;;17.77;9.58;;;;;;;23.89;67.70;100358.16;1744696;82;21406;-51
2023/08/30 06:29:00;;;;;;;14.03;9.08;;;;;;;23.97;67.54;100359.13;1707438;83;21446;-55
2023/08/30 06:32:06;;;;;;;13.98;9.23;;;;;;;24.05;67.46;100358.65;1714259;83;21326;-54
2023/08/30 06:35:12;;;;;;;16.42;8.95;;;;;;;24.13;67.36;100348.38;1706345;84;21220;-54
2023/08/30 06:38:21;;;;;;;15.00;8.23;;;;;;;24.21;67.26;100353.50;1687723;84;21196;-55
2023/08/30 06:41:28;;;;;;;15.32;8.18;;;;;;;24.29;67.10;100350.22;1720911;82;21802;-54
2023/08/30 06:44:34;;;;;;;13.72;8.18;;;;;;;24.37;66.98;100358.95;1722614;82;21346;-54
2023/08/30 06:47:41;;;;;;;15.00;7.50;;;;;;;24.45;66.83;100365.46;1735626;82;21614;-53
2023/08/30 06:50:48;;;;;;;11.60;7.60;;;;;;;24.53;66.64;100366.37;1706841;84;21413;-53
2023/08/30 06:53:55;;;;;;;13.65;6.97;;;;;;;24.60;66.50;100365.60;1707273;84;21296;-54
2023/08/30 06:57:08;;;;;;;15.58;7.90;;;;;;;24.67;66.34;100355.03;1711880;82;21233;-53
2023/08/30 07:00:16;;;;;;;16.00;7.42;;;;;;;24.74;66.21;100362.66;1721368;82;21900;-53
2023/08/30 07:03:21;;;;;;;11.70;6.78;;;;;;;24.81;66.04;100361.88;1715045;82;21425;-54
2023/08/30 07:06:30;;;;;;;12.93;7.17;;;;;;;24.88;65.91;100358.82;1730900;82;21749;-53
2023/08/30 07:09:33;;;;;;;14.15;7.53;;;;;;;24.96;65.82;100359.72;1714377;83;21750;-53
2023/08/30 07:12:48;;;;;;;14.07;7.80;;;;;;;25.03;65.71;100355.59;1743281;82;21235;-54
2023/08/30 07:15:50;;;;;;;13.50;7.40;;;;;;;25.10;65.51;100348.89;1675118;84;21209;-54
2023/08/30 07:18:57;;;;;;;11.08;6.33;;;;;;;25.17;65.26;100355.08;1670490;85;21240;-53
2023/08/30 07:22:03;;;;;;;11.88;6.40;;;;;;;25.23;64.98;100356.82;1726853;81;21326;-53
2023/08/30 07:25:13;;;;;;;13.45;6.97;;;;;;;25.30;64.71;100355.45;1688589;84;21232;-53
2023/08/30 07:28:18;;;;;;;10.88;6.53;;;;;;;25.34;64.41;100359.41;1718165;82;21263;-53
2023/08/30 07:31:24;;;;;;;10.10;6.47;;;;;;;25.38;64.22;100360.57;1713418;82;21361;-54
2023/08/30 07:34:31;;;;;;;11.95;6.42;;;;;;;25.43;64.05;100359.74;1711941;83;21220;-54
2023/08/30 07:37:38;;;;;;;9.55;6.30;;;;;;;25.50;63.87;100357.55;1654938;85;21778;-54
2023/08/30 07:40:45;;;;;;;9.08;6.15;;;;;;;25.59;63.73;100351.69;1672587;84;21269;-53
2023/08/30 07:43:51;;;;;;;12.35;6.10;;;;;;;25.66;63.51;100357.31;1659897;86;21301;-52
2023/08/30 07:46:57;;;;;;;9.58;6.17;;;;;;;25.75;63.27;100356.23;1655761;84;21828;-52
2023/08/30 07:50:03;;;;;;;12.20;6.70;;;;;;;25.81;63.00;100356.53;1724369;83;21376;-52
2023/08/30 07:53:09;;;;;;;10.88;5.83;;;;;;;25.89;62.79;100355.98;1723472;81;21894;-51
2023/08/30 07:56:15;;;;;;;10.58;5.53;;;;;;;25.98;62.53;100359.93;1731275;82;21331;-51
2023/08/30 07:59:23;;;;;;;11.63;5.75;;;;;;;26.06;62.33;100358.02;1736716;82;21247;-52
2023/08/30 08:02:29;;;;;;;13.62;7.00;;;;;;;26.13;62.07;100360.01;1730472;82;21200;-52
2023/08/30 08:05:36;;;;;;;18.52;6.53;;;;;;;26.20;61.79;100360.56;1693212;83;21267;-50
2023/08/30 08:08:42;;;;;;;9.45;5.90;;;;;;;26.28;61.60;100356.66;1666936;83;21212;-51
2023/08/30 08:11:48;;;;;;;11.45;6.20;;;;;;;26.37;61.44;100351.31;1715561;82;21211;-51
2023/08/30 08:14:53;;;;;;;9.78;5.78;;;;;;;26.45;61.19;100353.02;1661073;83;21226;-53
2023/08/30 08:18:00;;;;;;;12.98;5.83;;;;;;;26.54;60.92;100351.90;1713694;82;21816;-52
2023/08/30 08:21:05;;;;;;;9.63;6.03;;;;;;;26.62;60.63;100351.34;1664552;84;21270;-53
2023/08/30 08:24:13;;;;;;;10.85;5.92;;;;;;;26.70;60.34;100345.73;1723172;80;21223;-53
2023/08/30 08:27:20;;;;;;;7.40;5.75;;;;;;;26.77;60.06;100340.66;1719689;82;21211;-54
2023/08/30 08:30:25;;;;;;;10.72;5.62;;;;;;;26.86;59.81;100336.17;1677560;85;21251;-53
2023/08/30 08:33:31;;;;;;;9.53;5.62;;;;;;;26.94;59.60;100339.23;1679889;82;21792;-53
2023/08/30 08:36:38;;;;;;;13.35;5.95;;;;;;;27.00;59.27;100335.86;1680290;84;21212;-53
2023/08/30 08:39:46;;;;;;;15.88;6.60;;;;;;;27.06;59.08;100334.16;1735662;82;21195;-53
2023/08/30 08:42:52;;;;;;;14.40;5.60;;;;;;;27.15;58.91;100333.84;1714941;83;21433;-52
2023/08/30 08:45:58;;;;;;;14.75;5.62;;;;;;;27.24;58.78;100332.70;1732159;80;21285;-53
2023/08/30 08:49:04;;;;;;;7.33;5.17;;;;;;;27.31;58.45;100329.89;1731982;81;21219;-52
2023/08/30 08:52:11;;;;;;;11.33;5.60;;;;;;;27.38;58.19;100333.25;1713112;83;21768;-54
2023/08/30 08:55:18;;;;;;;8.98;5.40;;;;;;;27.46;58.02;100331.80;1713124;83;21238;-54
2023/08/30 08:58:24;;;;;;;11.53;5.92;;;;;;;27.53;57.83;100335.13;1737626;82;21899;-54
2023/08/30 09:01:33;;;;;;;9.78;6.03;;;;;;;27.60;57.64;100319.66;1726890;82;21733;-54
2023/08/30 09:04:39;;;;;;;11.43;6.20;;;;;;;27.64;57.35;100321.30;1741914;82;21473;-53
2023/08/30 09:07:44;;;;;;;11.90;5.85;;;;;;;27.67;57.13;100307.50;1737626;82;21443;-53
2023/08/30 09:10:52;;;;;;;11.73;6.03;;;;;;;27.74;57.02;100309.44;1630651;86;21259;-53
2023/08/30 09:13:57;;;;;;;10.45;6.15;;;;;;;27.79;56.74;100312.23;1712081;83;21322;-53
2023/08/30 09:17:07;;;;;;;13.68;6.10;;;;;;;27.83;56.58;100311.91;1718576;80;21255;-53
2023/08/30 09:20:18;;;;;;;11.80;6.30;;;;;;;27.89;56.43;100311.91;1705298;83;21291;-53
2023/08/30 09:23:27;;;;;;;15.38;6.35;;;;;;;27.96;56.25;100311.01;1660463;84;21283;-54
2023/08/30 09:26:35;;;;;;;11.65;7.25;;;;;;;28.04;56.16;100307.58;1656283;86;21242;-52
2023/08/30 09:29:43;;;;;;;13.55;7.28;;;;;;;28.12;56.06;100314.00;1709498;84;21337;-53
2023/08/30 09:32:49;;;;;;;12.90;7.03;;;;;;;28.21;55.90;100306.62;1702366;84;21800;-52
2023/08/30 09:35:58;;;;;;;10.35;6.85;;;;;;;28.26;55.73;100312.23;1718209;82;21938;-52
2023/08/30 09:39:04;;;;;;;9.28;7.10;;;;;;;28.37;55.23;100307.61;1733136;81;21274;-53
2023/08/30 09:42:10;;;;;;;12.23;6.75;;;;;;;28.37;55.23;100307.61;1731023;82;21366;-53
2023/08/30 09:45:32;;;;;;;12.60;6.12;;;;;;;28.43;55.15;100310.64;1724822;82;22082;-54
2023/08/30 09:48:39;;;;;;;8.30;5.90;;;;;;;28.50;54.98;100308.37;1724922;82;21795;-53
2023/08/30 09:51:48;;;;;;;11.18;6.20;;;;;;;28.55;54.82;100301.84;1715489;82;21722;-54
2023/08/30 09:54:54;;;;;;;11.95;6.17;;;;;;;28.62;54.64;100293.31;1712238;84;21366;-52
2023/08/30 09:58:01;;;;;;;9.88;6.50;;;;;;;28.68;54.48;100295.53;1712417;84;21225;-53
2023/08/30 10:01:06;;;;;;;8.68;6.40;;;;;;;28.74;54.30;100295.75;1711790;84;21213;-52
2023/08/30 10:04:11;;;;;;;11.60;6.17;;;;;;;28.88;54.22;100295.31;1728148;81;21227;-52
2023/08/30 10:07:17;;;;;;;10.78;6.17;;;;;;;28.88;54.22;100295.31;1717189;82;21207;-52
2023/08/30 10:10:23;;;;;;;9.98;6.28;;;;;;;28.95;53.76;100291.58;1711323;83;21243;-53
2023/08/30 10:13:30;;;;;;;11.55;6.58;;;;;;;28.96;53.43;100292.69;1726224;81;21220;-53
2023/08/30 10:16:36;;;;;;;9.48;6.33;;;;;;;28.91;52.86;100289.08;1710900;83;21215;-53
2023/08/30 10:19:44;;;;;;;10.80;6.05;;;;;;;29.01;53.01;100286.16;1735942;82;21211;-55
2023/08/30 10:22:52;;;;;;;14.03;7.03;;;;;;;29.01;53.01;100286.16;1688065;83;21386;-55
2023/08/30 10:25:57;;;;;;;11.22;7.58;;;;;;;29.13;52.80;100291.67;1735993;82;21393;-55
2023/08/30 10:29:03;;;;;;;11.18;6.95;;;;;;;29.23;52.55;100290.72;1737056;80;21389;-55
2023/08/30 10:32:12;;;;;;;16.67;6.65;;;;;;;29.31;52.31;100291.46;1725019;82;21807;-56
2023/08/30 10:35:26;;;;;;;10.15;6.58;;;;;;;29.37;52.42;100289.44;1728116;82;22083;-55
2023/08/30 10:38:40;;;;;;;10.48;7.05;;;;;;;29.50;52.17;100283.88;1728633;80;21786;-55
2023/08/30 10:41:45;;;;;;;11.90;7.05;;;;;;;29.59;51.91;100289.11;1711072;83;21196;-55
2023/08/30 10:45:04;;;;;;;15.53;6.75;;;;;;;29.68;51.75;100281.70;1727512;82;21728;-55
2023/08/30 10:48:13;;;;;;;12.47;7.03;;;;;;;29.77;51.53;100271.39;1709959;83;21769;-55
2023/08/30 10:51:44;;;;;;;12.55;7.12;;;;;;;29.81;51.29;100273.86;1734515;81;21788;-55
2023/08/30 10:54:50;;;;;;;12.37;6.97;;;;;;;29.88;51.18;100264.45;1735994;82;21235;-58
2023/08/30 10:58:09;;;;;;;9.68;6.40;;;;;;;29.94;50.86;100270.28;1732259;82;21204;-52
2023/08/30 11:01:17;;;;;;;12.47;6.65;;;;;;;30.02;50.78;100270.16;1741165;82;21215;-52
2023/08/30 11:04:23;;;;;;;9.53;6.65;;;;;;;30.12;50.61;100261.53;1712641;82;21217;-53
2023/08/30 11:07:32;;;;;;;12.50;5.90;;;;;;;30.21;50.52;100264.79;1724446;82;21247;-52
2023/08/30 11:10:39;;;;;;;9.53;6.97;;;;;;;30.30;50.36;100261.52;1727819;80;21203;-53
2023/08/30 11:13:46;;;;;;;12.45;6.92;;;;;;;30.40;50.20;100252.03;1736913;80;21212;-53
2023/08/30 11:16:53;;;;;;;11.85;6.78;;;;;;;30.47;50.07;100249.09;1673183;85;21927;-54
2023/08/30 11:20:01;;;;;;;13.40;6.50;;;;;;;30.56;49.95;100248.63;1725240;80;21365;-53
2023/08/30 11:23:06;;;;;;;12.28;6.87;;;;;;;30.64;49.71;100239.44;1733059;80;21215;-55
2023/08/30 11:26:12;;;;;;;12.95;6.90;;;;;;;30.75;49.50;100244.31;1728496;80;21753;-55
2023/08/30 11:29:20;;;;;;;8.10;6.55;;;;;;;30.82;49.38;100232.06;1724523;80;21247;-56
2023/08/30 11:32:26;;;;;;;11.30;6.37;;;;;;;30.90;49.21;100222.00;1656529;85;21606;-53
2023/08/30 11:35:32;;;;;;;13.55;6.40;;;;;;;30.96;48.96;100222.16;1717883;82;21743;-53
2023/08/30 11:38:37;;;;;;;14.65;7.17;;;;;;;31.02;48.81;100226.55;1735825;82;21235;-54
2023/08/30 11:41:44;;;;;;;9.15;6.70;;;;;;;31.05;48.57;100216.05;1730515;82;21211;-51
2023/08/30 11:44:53;;;;;;;11.08;6.50;;;;;;;31.07;48.24;100209.48;1711171;82;21768;-53
2023/08/30 11:48:00;;;;;;;12.60;6.30;;;;;;;31.07;48.08;100204.67;1682953;83;21235;-52
2023/08/30 11:51:07;;;;;;;12.98;7.03;;;;;;;31.09;47.89;100210.86;1711021;83;21251;-52
2023/08/30 11:54:14;;;;;;;10.05;6.58;;;;;;;31.11;47.73;100211.36;1691845;83;21282;-52
2023/08/30 11:57:21;;;;;;;9.48;6.80;;;;;;;31.09;47.52;100210.02;1674306;84;21259;-53
2023/08/30 12:00:26;;;;;;;10.48;6.05;;;;;;;31.10;47.43;100203.19;1696020;81;21180;-53
2023/08/30 12:03:31;;;;;;;9.33;6.12;;;;;;;31.13;47.23;100204.00;1707251;81;21259;-52
2023/08/30 12:06:38;;;;;;;10.40;6.30;;;;;;;31.12;47.06;100193.26;1702232;82;21231;-53
2023/08/30 12:09:45;;;;;;;8.23;5.70;;;;;;;31.10;46.83;100201.78;1702666;83;21499;-52
2023/08/30 12:12:55;;;;;;;12.50;5.87;;;;;;;31.07;46.56;100191.09;1707176;83;21231;-54
2023/08/30 12:16:05;;;;;;;17.00;8.20;;;;;;;30.96;46.30;100191.90;1681546;83;21844;-53
2023/08/30 12:19:21;;;;;;;13.53;6.30;;;;;;;30.89;45.99;100199.13;1696945;83;21243;-53
2023/08/30 12:22:30;;;;;;;16.02;7.20;;;;;;;30.77;45.76;100184.66;1696727;83;21250;-51
2023/08/30 12:25:35;;;;;;;12.55;6.50;;;;;;;30.68;45.68;100178.29;1708594;82;21215;-53
2023/08/30 12:28:47;;;;;;;11.63;6.08;;;;;;;30.68;45.61;100176.63;1713840;83;21239;-53
2023/08/30 12:31:54;;;;;;;10.78;6.10;;;;;;;30.68;45.56;100175.46;1686264;84;21227;-54
2023/08/30 12:34:59;;;;;;;9.35;6.35;;;;;;;30.66;45.44;100171.28;1701944;83;21216;-53
2023/08/30 12:38:09;;;;;;;12.93;6.17;;;;;;;30.63;45.26;100171.35;1701822;83;21793;-52
2023/08/30 12:41:15;;;;;;;9.70;6.40;;;;;;;30.57;44.98;100162.69;1711054;83;21227;-52
2023/08/30 12:44:21;;;;;;;10.13;6.25;;;;;;;30.52;44.77;100169.03;1711673;82;21228;-54
2023/08/30 12:47:30;;;;;;;11.50;6.47;;;;;;;30.43;44.56;100166.64;1653921;85;21614;-51
2023/08/30 12:50:35;;;;;;;9.48;7.78;;;;;;;30.34;44.42;100163.72;1688251;83;21772;-52
2023/08/30 12:53:41;;;;;;;11.20;6.75;;;;;;;30.31;44.34;100162.08;1725720;83;21428;-52
2023/08/30 12:56:48;;;;;;;16.95;6.40;;;;;;;30.22;44.16;100169.00;1716317;83;21425;-53
2023/08/30 12:59:53;;;;;;;16.10;6.50;;;;;;;30.19;44.08;100165.36;1733110;82;21220;-52
2023/08/30 13:03:00;;;;;;;11.08;6.05;;;;;;;30.14;43.94;100157.00;1724075;82;21428;-53
2023/08/30 13:06:07;;;;;;;8.00;5.67;;;;;;;30.12;43.82;100158.44;1743173;82;21258;-53
2023/08/30 13:09:15;;;;;;;29.05;8.10;;;;;;;30.06;43.63;100150.66;1744935;81;22069;-53
2023/08/30 13:12:20;;;;;;;9.20;5.97;;;;;;;29.99;43.52;100156.41;1726004;82;21759;-52
2023/08/30 13:15:26;;;;;;;11.15;6.87;;;;;;;29.94;43.43;100154.52;1685021;84;21225;-52
2023/08/30 13:18:32;;;;;;;14.78;6.83;;;;;;;29.92;43.42;100145.51;1701873;83;21294;-52
2023/08/30 13:21:37;;;;;;;9.15;7.08;;;;;;;29.91;43.30;100142.44;1732325;81;21793;-50
2023/08/30 13:24:43;;;;;;;13.15;5.92;;;;;;;29.88;43.19;100147.29;1713064;83;21603;-52
2023/08/30 13:27:50;;;;;;;18.17;6.15;;;;;;;29.87;43.13;100147.03;1655218;85;21515;-52
2023/08/30 13:30:56;;;;;;;13.62;5.65;;;;;;;29.83;43.03;100140.31;1735405;81;21192;-52
2023/08/30 13:34:03;;;;;;;11.60;6.15;;;;;;;29.80;42.97;100131.05;1766301;81;21231;-56
2023/08/30 13:37:11;;;;;;;9.65;5.83;;;;;;;29.81;42.92;100135.54;1736082;81;21235;-54
2023/08/30 13:40:17;;;;;;;8.55;5.17;;;;;;;29.78;42.83;100136.16;1649412;86;21308;-56
2023/08/30 13:43:22;;;;;;;11.57;5.97;;;;;;;29.74;42.81;100126.64;1654101;86;21844;-55
2023/08/30 13:46:29;;;;;;;8.45;5.65;;;;;;;29.74;42.81;100126.64;1713361;83;21355;-55
2023/08/30 13:49:37;;;;;;;11.73;5.87;;;;;;;29.74;42.69;100128.05;1671895;84;21822;-55
2023/08/30 13:52:44;;;;;;;13.03;6.22;;;;;;;29.73;42.61;100126.36;1663143;83;21742;-55
2023/08/30 13:55:56;;;;;;;10.53;5.37;;;;;;;29.71;42.55;100132.06;1722681;81;21479;-55
2023/08/30 13:59:09;;;;;;;9.85;5.00;;;;;;;29.64;42.47;100132.45;1724053;82;21408;-55
2023/08/30 14:02:13;;;;;;;10.03;5.58;;;;;;;29.63;42.42;100127.93;1747539;81;21967;-53
2023/08/30 14:05:21;;;;;;;10.00;5.62;;;;;;;29.59;42.36;100129.67;1665639;85;21221;-52
2023/08/30 14:08:27;;;;;;;13.32;6.03;;;;;;;29.55;42.34;100138.50;1685798;84;21257;-54
2023/08/30 14:11:34;;;;;;;10.35;5.30;;;;;;;29.55;42.34;100138.50;1665141;85;21293;-55
2023/08/30 14:14:41;;;;;;;10.60;5.72;;;;;;;29.51;42.19;100139.42;1739715;82;21258;-53
2023/08/30 14:17:49;;;;;;;8.55;5.37;;;;;;;29.44;42.03;100134.16;1740611;82;21262;-54
2023/08/30 14:20:54;;;;;;;8.50;5.42;;;;;;;29.40;42.13;100135.90;1737901;82;21224;-54